Time;durP1;ratioP1;P1;durP2;ratioP2;P2;SDS_P1;SDS_P2;PMS_P1;PMS_P2;Temp;Humidity;BMP_temperature;BMP_pressure;BME280_temperature;BME280_humidity;BME280_pressure;Samples;Min_cycle;Max_cycle;Signal;HPM_P1;HPM_P2
2022/01/07 00:00:07;;;;;;;10.10;2.00;;;5.70;99.90;;;;;;5043947;28;20079;-64
2022/01/07 00:02:33;;;;;;;23.38;3.47;;;5.60;99.90;;;;;;5044159;28;20084;-64
2022/01/07 00:05:01;;;;;;;9.75;1.90;;;5.60;99.90;;;;;;5043547;28;20068;-62
2022/01/07 00:07:28;;;;;;;15.90;2.30;;;5.60;99.90;;;;;;5047978;28;20135;-64
2022/01/07 00:09:54;;;;;;;12.63;2.00;;;5.60;99.90;;;;;;5047390;28;20554;-63
2022/01/07 00:12:22;;;;;;;21.55;3.53;;;5.70;99.90;;;;;;5046468;28;20130;-63
2022/01/07 00:14:52;;;;;;;19.45;2.95;;;5.70;99.90;;;;;;5047150;28;20128;-64
2022/01/07 00:17:19;;;;;;;17.60;2.53;;;5.70;99.90;;;;;;5046957;28;20527;-63
2022/01/07 00:19:46;;;;;;;11.90;2.90;;;5.70;99.90;;;;;;5051957;28;20045;-62
2022/01/07 00:22:12;;;;;;;13.30;1.90;;;5.80;99.90;;;;;;5050439;28;20183;-63
2022/01/07 00:24:39;;;;;;;6.85;1.48;;;5.80;99.90;;;;;;5050106;28;20065;-62
2022/01/07 00:27:07;;;;;;;8.25;1.55;;;5.80;99.90;;;;;;5050172;28;20049;-63
2022/01/07 00:29:50;;;;;;;6.47;0.80;;;5.70;99.90;;;;;;5043315;28;20142;-63
2022/01/07 00:32:17;;;;;;;4.45;0.77;;;5.60;99.90;;;;;;5049061;28;20542;-64
2022/01/07 00:34:44;;;;;;;5.68;1.13;;;5.50;99.90;;;;;;5050347;28;20084;-63
2022/01/07 00:37:11;;;;;;;5.28;0.95;;;5.50;99.90;;;;;;5050337;28;20118;-63
2022/01/07 00:39:38;;;;;;;3.95;0.60;;;5.40;99.90;;;;;;5050269;28;20072;-63
2022/01/07 00:42:06;;;;;;;5.75;0.90;;;5.30;99.90;;;;;;5049674;28;20464;-64
2022/01/07 00:44:33;;;;;;;1.60;1.05;;;5.20;99.90;;;;;;5050133;28;20123;-61
2022/01/07 00:47:00;;;;;;;4.32;0.68;;;5.20;99.90;;;;;;5050073;28;20464;-64
2022/01/07 00:49:27;;;;;;;6.25;0.70;;;5.10;99.90;;;;;;5049973;28;20072;-64
2022/01/07 00:51:54;;;;;;;2.17;0.50;;;5.00;99.90;;;;;;5048058;28;20091;-64
2022/01/07 00:54:21;;;;;;;5.25;0.70;;;5.00;99.90;;;;;;5048763;28;20504;-63
2022/01/07 00:56:47;;;;;;;2.88;1.10;;;4.90;99.90;;;;;;5052601;28;20099;-63
2022/01/07 00:59:14;;;;;;;3.45;0.80;;;4.90;99.90;;;;;;5054102;28;20056;-63
2022/01/07 01:01:41;;;;;;;4.22;0.80;;;4.90;99.90;;;;;;5050224;28;20040;-62
2022/01/07 01:04:08;;;;;;;3.22;1.00;;;4.80;99.90;;;;;;5049020;28;20135;-63
2022/01/07 01:06:35;;;;;;;4.43;0.80;;;4.80;99.90;;;;;;5048443;28;20459;-62
2022/01/07 01:09:02;;;;;;;12.05;2.03;;;4.80;99.90;;;;;;5047130;28;20052;-62
2022/01/07 01:11:29;;;;;;;5.75;1.60;;;4.70;99.90;;;;;;5047604;28;20111;-63
2022/01/07 01:13:55;;;;;;;3.35;0.55;;;4.70;99.90;;;;;;5048002;28;20099;-63
2022/01/07 01:16:22;;;;;;;2.78;0.70;;;4.70;99.90;;;;;;5047967;28;20718;-63
2022/01/07 01:18:49;;;;;;;4.32;1.10;;;4.60;99.90;;;;;;5046975;28;20045;-63
2022/01/07 01:21:16;;;;;;;4.90;1.05;;;4.70;99.90;;;;;;5049286;28;20515;-62
2022/01/07 01:23:45;;;;;;;9.57;2.67;;;4.70;99.90;;;;;;5048805;28;20064;-63
2022/01/07 01:26:12;;;;;;;4.60;1.70;;;4.70;99.90;;;;;;5049252;28;20499;-63
2022/01/07 01:28:39;;;;;;;7.35;0.90;;;4.70;99.90;;;;;;5049438;28;20103;-62
2022/01/07 01:31:06;;;;;;;4.40;0.93;;;4.70;99.90;;;;;;5049782;28;20048;-63
2022/01/07 01:33:33;;;;;;;5.55;1.13;;;4.70;99.90;;;;;;5049099;28;20123;-63
2022/01/07 01:36:00;;;;;;;9.48;1.38;;;4.70;99.90;;;;;;5049106;28;20437;-63
2022/01/07 01:38:29;;;;;;;10.45;1.75;;;4.70;99.90;;;;;;5049368;28;20110;-63
2022/01/07 01:40:56;;;;;;;5.75;1.40;;;4.90;99.90;;;;;;5049972;28;20048;-63
2022/01/07 01:43:23;;;;;;;9.93;2.03;;;4.80;99.90;;;;;;5047739;28;20480;-63
2022/01/07 01:45:50;;;;;;;7.57;1.80;;;4.80;99.90;;;;;;5049261;28;20489;-64
2022/01/07 01:48:18;;;;;;;7.20;1.80;;;4.80;99.90;;;;;;5048142;28;20087;-63
2022/01/07 01:50:45;;;;;;;21.95;3.72;;;4.80;99.90;;;;;;5042288;28;20091;-63
2022/01/07 01:53:12;;;;;;;11.07;1.33;;;4.80;99.90;;;;;;5048853;28;20450;-64
2022/01/07 01:55:39;;;;;;;9.95;2.25;;;4.80;99.90;;;;;;5047342;28;20087;-64
2022/01/07 01:58:06;;;;;;;7.30;1.40;;;4.70;99.90;;;;;;5049094;28;20115;-63
2022/01/07 02:00:33;;;;;;;14.70;2.17;;;4.70;99.90;;;;;;5047746;28;20041;-64
2022/01/07 02:03:00;;;;;;;9.35;1.98;;;4.70;99.90;;;;;;5048239;28;20499;-64
2022/01/07 02:05:27;;;;;;;7.75;1.58;;;4.80;99.90;;;;;;5048773;28;20428;-63
2022/01/07 02:07:55;;;;;;;6.60;1.20;;;4.80;99.90;;;;;;5048434;28;20048;-63
2022/01/07 02:10:21;;;;;;;9.43;1.35;;;4.80;99.90;;;;;;5049070;28;20484;-63
2022/01/07 02:12:48;;;;;;;17.50;1.83;;;4.70;99.90;;;;;;5048620;28;20049;-64
2022/01/07 02:15:15;;;;;;;6.20;1.40;;;4.80;99.90;;;;;;5048372;28;20106;-63
2022/01/07 02:17:44;;;;;;;19.77;1.90;;;4.80;99.90;;;;;;5047149;28;20492;-63
2022/01/07 02:20:11;;;;;;;10.38;1.33;;;4.80;99.90;;;;;;5044814;28;20087;-63
2022/01/07 02:22:38;;;;;;;16.58;2.00;;;4.80;99.90;;;;;;5045179;28;20045;-64
2022/01/07 02:25:05;;;;;;;18.73;4.78;;;4.90;99.90;;;;;;5048413;28;20063;-64
2022/01/07 02:27:38;;;;;;;7.93;1.65;;;4.90;99.90;;;;;;5048699;28;20118;-63
2022/01/07 02:30:07;;;;;;;13.50;2.42;;;4.90;99.90;;;;;;5048336;28;20219;-63
2022/01/07 02:32:33;;;;;;;15.05;1.80;;;4.90;99.90;;;;;;5047591;28;20817;-63
2022/01/07 02:35:00;;;;;;;11.07;2.08;;;5.00;99.90;;;;;;5048535;28;20072;-64
2022/01/07 02:37:27;;;;;;;7.25;1.30;;;5.00;99.90;;;;;;5048569;28;20045;-64
2022/01/07 02:39:54;;;;;;;12.60;1.65;;;5.00;99.90;;;;;;5048179;28;20056;-64
2022/01/07 02:42:21;;;;;;;10.10;1.65;;;5.00;99.90;;;;;;5047712;28;20044;-63
2022/01/07 02:44:47;;;;;;;13.52;3.35;;;5.10;99.90;;;;;;5048050;28;20068;-63
2022/01/07 02:47:16;;;;;;;13.68;2.00;;;5.10;99.90;;;;;;5048050;28;20084;-63
2022/01/07 02:49:42;;;;;;;12.52;1.52;;;5.10;99.90;;;;;;5047909;28;20068;-63
2022/01/07 02:52:09;;;;;;;9.23;1.50;;;5.10;99.90;;;;;;5047879;28;20068;-64
2022/01/07 02:54:36;;;;;;;11.88;1.60;;;5.10;99.90;;;;;;5047668;28;20044;-64
2022/01/07 02:57:03;;;;;;;17.95;1.48;;;5.10;99.90;;;;;;5048030;28;20091;-64
2022/01/07 02:59:30;;;;;;;7.10;2.35;;;5.10;99.90;;;;;;5047329;28;20045;-63
2022/01/07 03:01:56;;;;;;;9.30;1.80;;;5.10;99.90;;;;;;5047178;28;20103;-64
2022/01/07 03:04:26;;;;;;;10.07;2.22;;;5.10;99.90;;;;;;5047811;28;20037;-64
2022/01/07 03:06:53;;;;;;;13.80;2.30;;;5.10;99.90;;;;;;5046988;28;20103;-64
2022/01/07 03:09:20;;;;;;;7.65;1.88;;;5.10;99.90;;;;;;5048103;28;20048;-63
2022/01/07 03:11:47;;;;;;;14.88;2.00;;;5.10;99.90;;;;;;5047341;28;20045;-64
2022/01/07 03:14:13;;;;;;;9.50;1.77;;;5.10;99.90;;;;;;5047569;28;20080;-64
2022/01/07 03:16:40;;;;;;;17.98;2.80;;;5.10;99.90;;;;;;5047799;28;20076;-64
2022/01/07 03:19:07;;;;;;;9.07;1.70;;;5.10;99.90;;;;;;5047426;28;20072;-63
2022/01/07 03:21:34;;;;;;;9.10;1.88;;;5.10;99.90;;;;;;5047239;28;20100;-62
2022/01/07 03:24:01;;;;;;;12.75;2.08;;;5.10;99.70;;;;;;5047996;28;20044;-63
2022/01/07 03:26:27;;;;;;;11.02;1.23;;;5.10;99.90;;;;;;5050909;28;20087;-62
2022/01/07 03:28:54;;;;;;;11.95;2.17;;;5.10;99.60;;;;;;5047560;28;20083;-63
2022/01/07 03:31:21;;;;;;;9.80;2.63;;;5.10;99.80;;;;;;5047154;28;20049;-62
2022/01/07 03:33:48;;;;;;;7.22;2.80;;;5.10;99.20;;;;;;5047190;28;20045;-63
2022/01/07 03:36:15;;;;;;;8.75;1.42;;;5.00;99.40;;;;;;5047325;28;20475;-63
2022/01/07 03:38:41;;;;;;;13.25;3.10;;;5.00;99.50;;;;;;5047362;28;20057;-64
2022/01/07 03:41:08;;;;;;;9.57;1.58;;;5.00;99.80;;;;;;5048679;28;20106;-63
2022/01/07 03:43:35;;;;;;;11.70;2.10;;;5.00;99.40;;;;;;5051401;28;20048;-62
2022/01/07 03:46:02;;;;;;;5.25;1.80;;;5.00;99.80;;;;;;5051424;28;20143;-63
2022/01/07 03:48:29;;;;;;;8.70;1.75;;;5.10;99.50;;;;;;5051136;28;20505;-63
2022/01/07 03:50:56;;;;;;;13.75;1.70;;;4.90;99.50;;;;;;5051532;28;20048;-61
2022/01/07 03:53:25;;;;;;;10.77;1.25;;;5.10;99.60;;;;;;5050668;28;20485;-63
2022/01/07 03:55:52;;;;;;;10.98;1.50;;;4.90;99.30;;;;;;5049956;28;20049;-62
2022/01/07 03:58:19;;;;;;;11.13;1.88;;;4.90;99.50;;;;;;5051008;28;20053;-63
2022/01/07 04:00:46;;;;;;;8.95;1.55;;;4.90;99.50;;;;;;5051183;28;20079;-63
2022/01/07 04:03:15;;;;;;;12.52;2.35;;;4.90;99.50;;;;;;5037801;28;20068;-63
2022/01/07 04:05:42;;;;;;;9.52;1.73;;;4.80;99.50;;;;;;5050081;28;20079;-63
2022/01/07 04:08:09;;;;;;;8.07;3.03;;;4.80;99.60;;;;;;5050937;28;20049;-62
2022/01/07 04:10:35;;;;;;;16.20;3.28;;;4.80;99.60;;;;;;5045943;28;20122;-63
2022/01/07 04:13:03;;;;;;;11.95;1.70;;;4.90;99.70;;;;;;5051161;28;20045;-63
2022/01/07 04:15:29;;;;;;;10.55;2.33;;;4.70;99.70;;;;;;5050998;28;20044;-63
2022/01/07 04:17:56;;;;;;;9.77;1.75;;;4.70;99.50;;;;;;5050957;28;20107;-63
2022/01/07 04:20:33;;;;;;;17.08;1.83;;;4.70;99.60;;;;;;5051016;28;20041;-61
2022/01/07 04:23:00;;;;;;;7.43;1.67;;;4.70;99.30;;;;;;5049756;28;20060;-62
2022/01/07 04:25:27;;;;;;;11.32;1.42;;;4.70;99.40;;;;;;5049595;28;20044;-64
2022/01/07 04:27:57;;;;;;;12.93;1.40;;;4.70;99.50;;;;;;5050939;28;20644;-63
2022/01/07 04:30:24;;;;;;;19.33;2.88;;;4.70;99.00;;;;;;5051056;28;20045;-63
2022/01/07 04:32:52;;;;;;;9.38;1.75;;;5.10;99.10;;;;;;5050661;28;20048;-63
2022/01/07 04:35:19;;;;;;;9.80;1.50;;;4.70;99.10;;;;;;5049534;28;20095;-63
2022/01/07 04:37:46;;;;;;;7.45;1.20;;;4.70;98.80;;;;;;5049463;28;20522;-62
2022/01/07 04:40:14;;;;;;;12.50;1.98;;;4.70;98.60;;;;;;5050362;28;20037;-63
2022/01/07 04:42:40;;;;;;;4.25;1.33;;;4.60;98.90;;;;;;5050949;28;20056;-63
2022/01/07 04:45:08;;;;;;;6.13;2.17;;;4.60;98.80;;;;;;5049165;28;20523;-63
2022/01/07 04:47:36;;;;;;;2.78;0.70;;;4.60;98.50;;;;;;5050300;28;20080;-62
2022/01/07 04:50:04;;;;;;;4.85;0.95;;;4.60;98.90;;;;;;5049471;28;20084;-63
2022/01/07 04:52:31;;;;;;;6.10;1.05;;;4.50;98.80;;;;;;5050221;28;20676;-65
2022/01/07 04:54:58;;;;;;;5.75;1.52;;;4.50;98.40;;;;;;5049895;28;20085;-63
2022/01/07 04:57:24;;;;;;;8.65;1.38;;;4.50;98.50;;;;;;5047675;28;20084;-63
2022/01/07 04:59:51;;;;;;;11.68;2.20;;;4.50;98.40;;;;;;5050232;28;20080;-63
2022/01/07 05:02:20;;;;;;;2.10;1.30;;;4.50;98.40;;;;;;5050439;28;20080;-63
2022/01/07 05:04:47;;;;;;;6.70;1.45;;;4.50;98.20;;;;;;5050069;28;20041;-63
2022/01/07 05:07:14;;;;;;;7.88;2.88;;;4.50;97.90;;;;;;5051307;28;20061;-65
2022/01/07 05:09:41;;;;;;;4.38;1.02;;;4.50;98.40;;;;;;5050283;28;20079;-63
2022/01/07 05:12:08;;;;;;;9.98;2.60;;;4.50;97.90;;;;;;5050221;28;20083;-63
2022/01/07 05:14:35;;;;;;;13.80;2.67;;;4.50;98.20;;;;;;5050144;28;20053;-63
2022/01/07 05:17:02;;;;;;;9.27;1.90;;;4.40;98.10;;;;;;5050253;28;20137;-63
2022/01/07 05:19:29;;;;;;;10.10;1.20;;;4.40;98.60;;;;;;5048745;28;20052;-64
2022/01/07 05:21:56;;;;;;;3.35;1.02;;;4.40;98.40;;;;;;5050265;28;20115;-63
2022/01/07 05:24:22;;;;;;;6.25;0.98;;;4.40;98.10;;;;;;5049862;28;20115;-66
2022/01/07 05:26:49;;;;;;;8.20;1.17;;;4.30;98.10;;;;;;5049693;28;20080;-62
2022/01/07 05:29:16;;;;;;;9.75;1.10;;;4.30;98.40;;;;;;5049459;28;20393;-62
2022/01/07 05:31:43;;;;;;;6.97;0.93;;;4.30;98.30;;;;;;5049473;28;20053;-63
2022/01/07 05:34:09;;;;;;;6.63;2.05;;;4.30;98.50;;;;;;5049814;28;20045;-62
2022/01/07 05:36:37;;;;;;;5.72;0.82;;;4.30;98.40;;;;;;5048830;28;20088;-63
2022/01/07 05:39:05;;;;;;;7.32;1.48;;;4.20;98.10;;;;;;5049733;28;20103;-63
2022/01/07 05:41:32;;;;;;;5.15;1.30;;;4.20;98.30;;;;;;5049434;28;20072;-63
2022/01/07 05:43:59;;;;;;;4.80;1.10;;;4.20;98.30;;;;;;5047939;28;20114;-62
2022/01/07 05:46:26;;;;;;;4.95;1.35;;;4.10;98.10;;;;;;5049166;28;20051;-63
2022/01/07 05:48:53;;;;;;;9.38;0.98;;;4.10;98.40;;;;;;5049379;28;20049;-63
2022/01/07 05:51:19;;;;;;;3.90;1.05;;;4.10;98.60;;;;;;5051369;28;20045;-64
2022/01/07 05:53:46;;;;;;;5.28;0.85;;;4.10;98.50;;;;;;5053245;28;20049;-62
2022/01/07 05:56:13;;;;;;;9.55;2.03;;;4.10;98.20;;;;;;5051328;28;20077;-63
2022/01/07 05:58:40;;;;;;;7.68;0.93;;;4.00;98.20;;;;;;5049413;28;20086;-64
2022/01/07 06:01:09;;;;;;;3.42;1.27;;;4.00;98.30;;;;;;5048848;28;20083;-64
2022/01/07 06:03:37;;;;;;;6.32;0.77;;;4.00;98.00;;;;;;5047268;28;20140;-64
2022/01/07 06:06:04;;;;;;;5.78;1.27;;;4.00;98.50;;;;;;5049155;28;20076;-64
2022/01/07 06:08:31;;;;;;;2.47;0.90;;;3.90;98.60;;;;;;5046566;28;20044;-63
2022/01/07 06:10:57;;;;;;;3.30;0.70;;;3.90;98.40;;;;;;5048587;28;20065;-63
2022/01/07 06:13:24;;;;;;;5.35;1.08;;;4.00;98.10;;;;;;5046947;28;20094;-63
2022/01/07 06:15:51;;;;;;;4.90;1.30;;;3.90;98.10;;;;;;5049176;28;20072;-63
2022/01/07 06:18:18;;;;;;;6.93;1.20;;;3.90;98.30;;;;;;5048351;28;20130;-64
2022/01/07 06:20:45;;;;;;;7.38;1.67;;;4.00;98.10;;;;;;5048514;28;20083;-65
2022/01/07 06:23:11;;;;;;;3.65;0.80;;;4.00;98.30;;;;;;5048360;28;20500;-63
2022/01/07 06:25:38;;;;;;;7.22;1.10;;;3.90;98.30;;;;;;5048471;28;20539;-63
2022/01/07 06:28:05;;;;;;;3.63;0.98;;;3.90;98.40;;;;;;5047305;28;20041;-63
2022/01/07 06:30:32;;;;;;;4.05;1.27;;;4.60;98.30;;;;;;5048769;28;20139;-62
2022/01/07 06:32:59;;;;;;;6.38;1.27;;;3.90;97.90;;;;;;5047236;28;20127;-62
2022/01/07 06:35:25;;;;;;;4.95;1.33;;;3.90;98.10;;;;;;5048294;28;20114;-63
2022/01/07 06:37:52;;;;;;;7.15;1.35;;;4.00;97.90;;;;;;5047748;28;20048;-63
2022/01/07 06:40:19;;;;;;;8.30;1.98;;;4.00;98.20;;;;;;5047913;28;20068;-63
2022/01/07 06:42:46;;;;;;;4.57;0.98;;;4.00;98.20;;;;;;5047720;28;20632;-63
2022/01/07 06:45:12;;;;;;;8.10;1.42;;;4.00;98.00;;;;;;5047991;28;20036;-63
2022/01/07 06:47:39;;;;;;;9.00;1.48;;;4.10;97.60;;;;;;5047376;28;20094;-63
2022/01/07 06:50:07;;;;;;;10.77;1.25;;;4.10;97.60;;;;;;5047278;28;20052;-63
2022/01/07 06:52:33;;;;;;;2.78;0.95;;;4.10;97.70;;;;;;5046745;28;20053;-63
2022/01/07 06:55:00;;;;;;;4.20;1.27;;;4.20;97.70;;;;;;5047492;28;20094;-63
2022/01/07 06:57:27;;;;;;;4.03;1.02;;;4.20;97.60;;;;;;5048053;28;20520;-64
2022/01/07 06:59:54;;;;;;;9.20;1.23;;;4.10;97.80;;;;;;5047500;28;20099;-63
2022/01/07 07:02:21;;;;;;;6.28;1.77;;;4.20;98.00;;;;;;5048286;28;20045;-64
2022/01/07 07:04:48;;;;;;;8.60;1.30;;;4.10;97.80;;;;;;5046563;28;20049;-64
2022/01/07 07:07:15;;;;;;;8.05;1.35;;;4.10;97.90;;;;;;5047591;28;20068;-64
2022/01/07 07:09:42;;;;;;;7.43;1.23;;;4.10;98.10;;;;;;5047399;28;20122;-64
2022/01/07 07:12:09;;;;;;;4.50;0.85;;;4.10;98.20;;;;;;5047730;28;20550;-64
2022/01/07 07:14:36;;;;;;;8.93;0.95;;;4.10;97.90;;;;;;5047167;28;20049;-64
2022/01/07 07:17:03;;;;;;;8.63;1.63;;;4.10;97.90;;;;;;5047118;28;20646;-65
2022/01/07 07:19:31;;;;;;;5.10;1.13;;;4.10;97.90;;;;;;5047505;28;20132;-65
2022/01/07 07:21:58;;;;;;;7.80;1.75;;;4.10;98.20;;;;;;5047850;28;20140;-63
2022/01/07 07:24:25;;;;;;;8.55;1.33;;;4.00;98.00;;;;;;5046809;28;20150;-64
2022/01/07 07:26:52;;;;;;;5.13;1.02;;;4.00;98.20;;;;;;5046831;28;20076;-64
2022/01/07 07:29:19;;;;;;;5.95;1.38;;;4.00;97.90;;;;;;5045927;28;20542;-64
2022/01/07 07:31:49;;;;;;;6.63;0.75;;;4.00;97.90;;;;;;5046810;28;20071;-64
2022/01/07 07:37:02;;;;;;;7.20;0.95;;;4.00;98.10;;;;;;5039075;28;20065;-66
2022/01/07 07:39:29;;;;;;;3.30;1.33;;;4.00;97.70;;;;;;5043489;28;20084;-62
2022/01/07 07:41:56;;;;;;;8.15;1.73;;;4.00;97.80;;;;;;5043429;28;20041;-67
2022/01/07 07:44:24;;;;;;;7.32;2.13;;;3.90;97.90;;;;;;5042845;28;20134;-67
2022/01/07 07:46:51;;;;;;;4.90;0.85;;;3.90;98.00;;;;;;5043696;28;20091;-65
2022/01/07 07:49:18;;;;;;;6.07;1.00;;;3.90;98.10;;;;;;5042174;28;20052;-66
2022/01/07 07:51:48;;;;;;;6.57;1.00;;;3.90;97.90;;;;;;5043622;28;20562;-66
2022/01/07 07:54:15;;;;;;;7.47;1.27;;;3.90;97.90;;;;;;5043252;28;20575;-66
2022/01/07 07:56:45;;;;;;;7.88;1.50;;;3.80;97.90;;;;;;5043068;28;20084;-67
2022/01/07 07:59:39;;;;;;;5.32;1.30;;;3.80;98.00;;;;;;5044610;28;20048;-67
2022/01/07 08:02:09;;;;;;;7.40;1.10;;;3.80;97.90;;;;;;5044073;28;20797;-65
2022/01/07 08:04:39;;;;;;;4.20;1.65;;;3.80;98.00;;;;;;5041948;28;20168;-65
2022/01/07 08:07:06;;;;;;;2.60;0.82;;;3.80;98.00;;;;;;5043846;28;20520;-66
2022/01/07 08:09:37;;;;;;;6.65;1.33;;;3.80;98.10;;;;;;5044405;28;20056;-66
2022/01/07 08:12:18;;;;;;;6.13;0.77;;;3.80;98.30;;;;;;5044007;28;20048;-64
2022/01/07 08:17:30;;;;;;;11.80;1.60;;;3.80;98.00;;;;;;5043561;28;20102;-67
2022/01/07 08:19:57;;;;;;;9.20;1.45;;;3.70;97.90;;;;;;5046754;28;20056;-65
2022/01/07 08:22:24;;;;;;;6.47;1.05;;;3.70;97.90;;;;;;5048181;28;20045;-65
2022/01/07 08:24:51;;;;;;;2.40;0.60;;;3.70;98.00;;;;;;5046204;28;20052;-63
2022/01/07 08:27:20;;;;;;;3.28;1.00;;;3.70;98.10;;;;;;5047714;28;20077;-63
2022/01/07 08:30:10;;;;;;;6.78;0.80;;;3.70;98.20;;;;;;5047899;28;20090;-63
2022/01/07 08:35:22;;;;;;;9.63;1.45;;;3.70;98.00;;;;;;5045182;28;20053;-64
2022/01/07 08:37:49;;;;;;;3.28;0.85;;;3.70;98.10;;;;;;5046987;28;20045;-65
2022/01/07 08:40:15;;;;;;;7.68;1.15;;;3.80;97.80;;;;;;5047580;28;20075;-65
2022/01/07 08:42:42;;;;;;;10.38;2.45;;;3.90;97.90;;;;;;5047475;28;20103;-64
2022/01/07 08:45:09;;;;;;;3.67;1.30;;;3.90;97.70;;;;;;5046938;28;20053;-64
2022/01/07 08:47:36;;;;;;;4.53;1.10;;;4.10;98.00;;;;;;5046088;28;20077;-65
2022/01/07 08:50:03;;;;;;;4.25;0.73;;;4.00;97.60;;;;;;5045940;28;20128;-64
2022/01/07 08:52:30;;;;;;;7.07;1.00;;;4.10;97.70;;;;;;5037977;28;20103;-64
2022/01/07 08:54:57;;;;;;;4.82;1.02;;;4.10;97.70;;;;;;5045882;28;20547;-65
2022/01/07 08:57:24;;;;;;;16.10;1.02;;;4.10;97.80;;;;;;5045367;28;20087;-65
2022/01/07 08:59:52;;;;;;;7.55;1.10;;;4.20;97.80;;;;;;5045771;28;20106;-65
2022/01/07 09:02:19;;;;;;;12.63;1.23;;;4.20;97.60;;;;;;5043812;28;20036;-65
2022/01/07 09:04:46;;;;;;;4.72;0.90;;;4.20;97.60;;;;;;5047208;28;20064;-64
2022/01/07 09:07:13;;;;;;;7.50;1.52;;;4.20;97.70;;;;;;5047249;28;20461;-65
2022/01/07 09:09:40;;;;;;;10.75;1.80;;;4.20;97.60;;;;;;5046583;28;20052;-65
2022/01/07 09:12:08;;;;;;;6.40;1.05;;;4.70;97.70;;;;;;5047399;28;20055;-64
2022/01/07 09:14:35;;;;;;;8.95;1.77;;;4.30;97.70;;;;;;5045122;28;20052;-64
2022/01/07 09:17:02;;;;;;;12.85;2.45;;;4.30;97.50;;;;;;5048921;28;20041;-64
2022/01/07 09:19:29;;;;;;;9.13;1.40;;;4.30;97.30;;;;;;5047442;28;20586;-64
2022/01/07 09:21:56;;;;;;;5.88;1.35;;;4.30;97.60;;;;;;5048927;28;20087;-65
2022/01/07 09:24:23;;;;;;;12.00;1.98;;;4.30;97.40;;;;;;5049588;28;20515;-64
2022/01/07 09:26:50;;;;;;;3.47;1.00;;;4.30;96.80;;;;;;5049687;28;20041;-64
2022/01/07 09:29:17;;;;;;;5.35;1.17;;;4.40;97.00;;;;;;5048380;28;20182;-64
2022/01/07 09:31:44;;;;;;;2.90;0.90;;;4.40;96.30;;;;;;5048877;28;20072;-64
2022/01/07 09:34:11;;;;;;;6.22;1.45;;;4.70;96.80;;;;;;5046236;28;20053;-65
2022/01/07 09:36:53;;;;;;;4.90;2.20;;;4.50;96.90;;;;;;5045734;28;20826;-64
2022/01/07 09:39:20;;;;;;;3.83;1.38;;;4.50;96.20;;;;;;5045352;28;20059;-64
2022/01/07 09:41:47;;;;;;;10.43;1.45;;;4.60;96.40;;;;;;5046306;28;20118;-64
2022/01/07 09:44:13;;;;;;;7.13;1.20;;;4.50;95.80;;;;;;5045308;28;20049;-64
2022/01/07 09:46:41;;;;;;;4.13;0.73;;;4.50;96.10;;;;;;5047560;28;20049;-65
2022/01/07 09:49:07;;;;;;;4.38;1.60;;;4.50;96.20;;;;;;5046289;28;20094;-65
2022/01/07 09:51:36;;;;;;;7.70;1.40;;;4.40;96.20;;;;;;5046616;28;20057;-66
2022/01/07 09:54:04;;;;;;;5.22;0.98;;;4.40;96.50;;;;;;5045968;28;20081;-65
2022/01/07 09:56:31;;;;;;;6.55;2.03;;;4.30;96.60;;;;;;5046555;28;20436;-64
2022/01/07 09:58:57;;;;;;;7.00;0.60;;;4.30;96.50;;;;;;5045944;28;20072;-64
2022/01/07 10:01:26;;;;;;;5.63;0.57;;;4.30;96.50;;;;;;5046247;28;20081;-64
2022/01/07 10:03:53;;;;;;;2.85;0.82;;;4.30;96.10;;;;;;5046124;28;20044;-65
2022/01/07 10:06:27;;;;;;;1.00;0.70;;;4.40;96.10;;;;;;5046276;28;20063;-64
2022/01/07 10:09:07;;;;;;;3.20;1.05;;;4.30;96.60;;;;;;5046212;28;20075;-65
2022/01/07 10:11:34;;;;;;;3.72;0.85;;;4.40;95.90;;;;;;5045927;28;20538;-65
2022/01/07 10:14:13;;;;;;;5.15;0.85;;;4.40;96.80;;;;;;5045931;28;20049;-65
2022/01/07 10:17:06;;;;;;;5.78;0.93;;;4.50;96.20;;;;;;5045383;28;20586;-64
2022/01/07 10:19:41;;;;;;;6.20;1.13;;;4.50;95.60;;;;;;5044391;28;20049;-64
2022/01/07 10:22:13;;;;;;;3.60;1.13;;;4.50;96.00;;;;;;5045611;28;20080;-65
2022/01/07 10:24:59;;;;;;;4.38;2.45;;;4.60;95.20;;;;;;5045664;28;20061;-65
2022/01/07 10:27:27;;;;;;;2.92;0.82;;;4.60;95.10;;;;;;5043928;28;20077;-65
2022/01/07 10:29:54;;;;;;;2.72;0.98;;;4.60;95.60;;;;;;5044622;28;20601;-65
2022/01/07 10:32:25;;;;;;;6.93;1.65;;;4.70;95.30;;;;;;5045165;28;20083;-65
2022/01/07 10:35:04;;;;;;;4.18;0.70;;;4.70;95.30;;;;;;5045228;28;20052;-65
2022/01/07 10:37:31;;;;;;;6.10;0.90;;;4.70;94.80;;;;;;5043286;28;20053;-65
2022/01/07 10:39:58;;;;;;;6.65;1.10;;;4.80;95.00;;;;;;5043881;28;20049;-65
2022/01/07 10:42:28;;;;;;;5.55;0.90;;;4.80;95.40;;;;;;5045504;28;20091;-65
2022/01/07 10:44:59;;;;;;;3.83;0.93;;;4.80;95.30;;;;;;5045499;28;20052;-65
2022/01/07 10:47:28;;;;;;;4.20;0.88;;;4.80;95.60;;;;;;5044914;28;20073;-65
2022/01/07 10:50:14;;;;;;;11.35;1.88;;;4.90;95.10;;;;;;5045278;28;20496;-64
2022/01/07 10:52:41;;;;;;;6.68;1.42;;;4.90;94.40;;;;;;5045320;28;20037;-65
2022/01/07 10:55:12;;;;;;;5.50;1.08;;;4.90;94.60;;;;;;5028548;28;20061;-65
2022/01/07 10:57:41;;;;;;;7.22;1.52;;;4.90;94.60;;;;;;5044346;28;20095;-65
2022/01/07 11:00:10;;;;;;;5.97;1.40;;;4.90;94.30;;;;;;5046057;28;20155;-66
2022/01/07 11:02:37;;;;;;;5.47;0.80;;;5.00;95.00;;;;;;5044723;28;20092;-65
2022/01/07 11:05:04;;;;;;;9.00;1.10;;;5.00;95.00;;;;;;5045493;28;20080;-66
2022/01/07 11:07:31;;;;;;;5.28;1.38;;;5.00;94.80;;;;;;5045285;28;20049;-65
2022/01/07 11:09:58;;;;;;;3.30;0.80;;;5.00;94.00;;;;;;5043609;28;20527;-66
2022/01/07 11:12:28;;;;;;;8.23;1.48;;;5.10;94.40;;;;;;5044876;28;20067;-66
2022/01/07 11:14:55;;;;;;;7.72;0.68;;;5.10;93.80;;;;;;5039636;28;20049;-65
2022/01/07 11:17:22;;;;;;;6.57;1.50;;;5.20;94.50;;;;;;5044755;28;20076;-66
2022/01/07 11:19:53;;;;;;;13.07;1.33;;;5.10;93.50;;;;;;5045113;28;20076;-65
2022/01/07 11:22:22;;;;;;;4.95;1.00;;;5.20;94.20;;;;;;5042519;28;20048;-65
2022/01/07 11:25:08;;;;;;;4.85;1.00;;;5.30;94.50;;;;;;5044217;28;20053;-65
2022/01/07 11:27:54;;;;;;;4.03;0.88;;;5.30;93.90;;;;;;5044532;28;20190;-66
2022/01/07 11:30:26;;;;;;;5.28;1.25;;;5.30;93.20;;;;;;5044294;28;20504;-65
2022/01/07 11:32:53;;;;;;;7.55;1.20;;;5.40;93.30;;;;;;5042078;28;20045;-65
2022/01/07 11:35:20;;;;;;;5.43;1.20;;;5.40;93.40;;;;;;5044382;28;20057;-65
2022/01/07 11:37:50;;;;;;;7.40;1.50;;;5.40;93.80;;;;;;5044459;28;20099;-66
2022/01/07 11:40:30;;;;;;;2.38;0.70;;;5.50;94.00;;;;;;5044296;28;20068;-64
2022/01/07 11:43:05;;;;;;;5.43;1.63;;;5.50;92.30;;;;;;5044301;28;20566;-65
2022/01/07 11:45:35;;;;;;;6.25;1.00;;;5.60;92.20;;;;;;5044168;28;20087;-66
2022/01/07 11:48:11;;;;;;;5.25;1.35;;;5.60;92.60;;;;;;5044268;28;20509;-65
2022/01/07 11:50:45;;;;;;;2.78;1.20;;;5.60;92.60;;;;;;5044220;28;20095;-64
2022/01/07 11:53:12;;;;;;;9.50;1.83;;;5.60;92.30;;;;;;5044018;28;20665;-65
2022/01/07 11:55:39;;;;;;;7.05;1.75;;;5.70;92.90;;;;;;5044113;28;20088;-65
2022/01/07 11:58:12;;;;;;;7.82;1.23;;;5.70;92.40;;;;;;5043712;28;20516;-65
2022/01/07 12:00:59;;;;;;;8.05;1.90;;;5.70;92.40;;;;;;5039892;28;20052;-64
2022/01/07 12:03:38;;;;;;;9.25;1.20;;;5.70;92.30;;;;;;5041788;28;20049;-65
2022/01/07 12:06:20;;;;;;;8.48;1.60;;;5.70;92.30;;;;;;5048571;28;20084;-66
2022/01/07 12:11:36;;;;;;;13.90;1.88;;;5.70;92.90;;;;;;5042061;28;20483;-64
2022/01/07 12:14:04;;;;;;;9.63;0.88;;;5.70;92.70;;;;;;5047498;28;20067;-65
2022/01/07 12:16:33;;;;;;;7.28;1.70;;;5.70;93.00;;;;;;5047001;28;20566;-65
2022/01/07 12:19:12;;;;;;;7.88;1.15;;;5.70;93.10;;;;;;5046872;28;20048;-66
2022/01/07 12:21:39;;;;;;;6.43;2.22;;;5.70;92.50;;;;;;5047185;28;20178;-67
2022/01/07 12:24:14;;;;;;;6.47;1.38;;;5.70;93.50;;;;;;5046402;28;20041;-65
2022/01/07 12:26:41;;;;;;;5.78;1.20;;;5.70;92.00;;;;;;5048147;28;20076;-66
2022/01/07 12:29:19;;;;;;;8.18;1.65;;;5.80;92.30;;;;;;5047219;28;20049;-66
2022/01/07 12:31:52;;;;;;;11.68;1.70;;;5.80;91.80;;;;;;5044834;28;20155;-64
2022/01/07 12:34:30;;;;;;;7.97;1.65;;;5.80;91.90;;;;;;5044795;28;20073;-64
2022/01/07 12:36:58;;;;;;;7.70;1.42;;;5.80;91.90;;;;;;5047817;28;20065;-65
2022/01/07 12:39:29;;;;;;;7.20;1.33;;;5.80;92.00;;;;;;5039826;28;20048;-64
2022/01/07 12:41:57;;;;;;;9.93;1.30;;;5.80;92.80;;;;;;5041958;28;20049;-64
2022/01/07 12:44:24;;;;;;;6.57;1.20;;;5.80;91.90;;;;;;5046915;28;20590;-65
2022/01/07 12:46:55;;;;;;;15.55;2.03;;;5.80;91.90;;;;;;5050024;28;20048;-64
2022/01/07 12:49:38;;;;;;;5.78;1.00;;;5.80;92.30;;;;;;5048675;28;20057;-66
2022/01/07 12:52:15;;;;;;;12.40;1.30;;;5.80;92.20;;;;;;5045641;28;20750;-66
2022/01/07 12:55:17;;;;;;;5.38;1.45;;;5.70;92.50;;;;;;5046780;28;20088;-64
2022/01/07 12:57:46;;;;;;;4.88;1.40;;;5.70;92.60;;;;;;5046487;28;20053;-65
2022/01/07 13:00:29;;;;;;;9.10;1.63;;;5.70;93.40;;;;;;5047242;28;20083;-64
2022/01/07 13:03:01;;;;;;;2.55;0.82;;;5.60;93.20;;;;;;5045373;28;20110;-69
2022/01/07 13:05:40;;;;;;;4.43;1.30;;;5.60;93.40;;;;;;5047043;28;20071;-66
2022/01/07 13:08:11;;;;;;;5.60;1.42;;;5.70;93.70;;;;;;5045617;28;20083;-66
2022/01/07 13:10:39;;;;;;;8.43;1.52;;;5.70;93.80;;;;;;5046982;28;20076;-66
2022/01/07 13:13:30;;;;;;;5.10;1.40;;;5.60;94.00;;;;;;5045596;28;20052;-65